Strona główna
METAR-TAF:

METAR-TAF

Lotnisko :

Port lotniczy Pekin

Pekin, Chiny

Szerokość geograficzna: 39-56N, Długość geograficzna: 116-17E, wysokość: 55 m

Aktualna obserwacja pogody

Raport powstał 41 minut temu, godzina 11:00 UTC
Wiatr 2 kt z kierunków zmiennych
Temperatura 0°C
Wilgotność 51%
Ciśnienie 1027 hPa
Widzialność 10 km lub więcej
Brak chmur poniżej 1500 m i brak chmur cumulonimbus

METAR: ZBAA 241100Z VRB01MPS CAVOK 00/M09 Q1027 NOSIG

czas: 19:41 (11:41 UTC)

Prognoza

Raport powstał 2 godziny i 11 minut temu, godzina 09:30 UTC
Prognoza ważna od 24 godzina 12 UTC do 25 godzina 12 UTC
Wiatr 8 kt od północ
Widzialność 10 km lub więcej
Brak chmur poniżej 1500 m i brak chmur cumulonimbus

TAF: ZBAA 240930Z 2412/2512 35004MPS CAVOK TX00/2507Z TNM11/22Z

Obserwacja i prognoza pogody dla ponad 4000 lotnisk (raport METAR i TAF).

Dostępne stacje oznaczono żółtymi i czerwonymi punktami na mapie.

Najedź kursorem aby zobaczyć nazwę stacji.

Kliknij aby zobaczyć obserwacje i prognozy pogody.

Aby zmienić mapę: kliknij na zielony przycisk z czarnym krzyżykiem, aby powiększyć; na zielony przycisk z myślnikiem, aby pomniejszyć; na zielone strzałki, aby przejść do map sąsiednich.


METAR-TAF: